createdAt,value
2017-06-29T00:00:30.212Z,16.80
2017-06-29T00:02:58.465Z,16.80
2017-06-29T00:05:25.989Z,16.70
2017-06-29T00:07:53.496Z,16.80
2017-06-29T00:10:21.781Z,16.70
2017-06-29T00:12:50.048Z,16.70
2017-06-29T00:15:17.563Z,16.60
2017-06-29T00:17:45.074Z,16.70
2017-06-29T00:20:12.603Z,16.70
2017-06-29T00:22:40.091Z,16.60
2017-06-29T00:25:08.364Z,16.60
2017-06-29T00:27:36.629Z,16.60
2017-06-29T00:30:04.144Z,16.50
2017-06-29T00:32:31.655Z,16.60
2017-06-29T00:34:59.932Z,16.50
2017-06-29T00:37:28.196Z,16.50
2017-06-29T00:39:56.476Z,16.40
2017-06-29T00:42:24.744Z,16.40
2017-06-29T00:44:52.260Z,16.30
2017-06-29T00:47:19.758Z,16.40
2017-06-29T00:49:47.276Z,16.30
2017-06-29T00:52:14.781Z,16.30
2017-06-29T00:54:42.301Z,16.30
2017-06-29T00:57:09.803Z,16.30
2017-06-29T00:59:38.094Z,16.20
2017-06-29T01:02:06.348Z,16.20
2017-06-29T01:04:33.861Z,16.00
2017-06-29T01:07:01.356Z,16.20
2017-06-29T01:09:28.872Z,16.20
2017-06-29T01:11:56.365Z,16.10
2017-06-29T01:14:23.895Z,16.10
2017-06-29T01:16:51.408Z,16.10
2017-06-29T01:19:18.928Z,16.10
2017-06-29T01:21:46.428Z,16.00
2017-06-29T01:24:14.704Z,16.00
2017-06-29T01:26:42.215Z,15.90
2017-06-29T01:29:09.727Z,16.00
2017-06-29T01:31:37.223Z,16.00
2017-06-29T01:34:04.741Z,16.00
2017-06-29T01:36:32.240Z,15.90
2017-06-29T01:38:59.760Z,15.90
2017-06-29T01:41:27.251Z,16.00
2017-06-29T01:43:54.769Z,15.90
2017-06-29T01:46:22.271Z,15.90
2017-06-29T01:48:49.787Z,16.00
2017-06-29T01:51:17.277Z,15.90
2017-06-29T01:53:44.795Z,15.80
2017-06-29T01:56:13.071Z,15.80
2017-06-29T01:58:41.349Z,15.90
2017-06-29T02:01:08.841Z,15.70
2017-06-29T02:03:36.362Z,15.80
2017-06-29T02:06:04.624Z,15.80
2017-06-29T02:08:32.909Z,15.80
2017-06-29T02:11:00.412Z,15.80
2017-06-29T02:13:27.923Z,15.90
2017-06-29T02:15:55.425Z,15.90
2017-06-29T02:18:22.941Z,15.80
2017-06-29T02:20:51.200Z,15.80
2017-06-29T02:23:18.704Z,15.70
2017-06-29T02:25:46.210Z,15.90
2017-06-29T02:28:13.720Z,15.90
2017-06-29T02:30:41.212Z,15.90
2017-06-29T02:33:08.736Z,15.90
2017-06-29T02:35:36.232Z,15.90
2017-06-29T02:38:03.749Z,15.90
2017-06-29T02:40:31.247Z,16.00
2017-06-29T02:42:58.755Z,16.00
2017-06-29T02:45:26.248Z,15.90
2017-06-29T02:47:53.760Z,16.00
2017-06-29T02:50:22.025Z,16.00
2017-06-29T02:52:49.532Z,15.90
2017-06-29T02:55:17.036Z,16.00
2017-06-29T02:57:44.552Z,16.00
2017-06-29T03:00:12.064Z,16.00
2017-06-29T03:02:39.593Z,15.90
2017-06-29T03:05:07.094Z,15.90
2017-06-29T03:07:34.605Z,15.90
2017-06-29T03:10:02.105Z,15.90
2017-06-29T03:12:29.619Z,15.90
2017-06-29T03:14:57.956Z,15.90
2017-06-29T03:17:25.483Z,15.90
2017-06-29T03:19:52.985Z,15.90
2017-06-29T03:22:20.491Z,15.90
2017-06-29T03:24:48.760Z,15.80
2017-06-29T03:27:16.284Z,15.70
2017-06-29T03:29:43.784Z,15.80
2017-06-29T03:32:12.072Z,15.80
2017-06-29T03:34:39.583Z,15.70
2017-06-29T03:37:07.104Z,15.70
2017-06-29T03:39:34.603Z,15.60
2017-06-29T03:42:02.155Z,15.60
2017-06-29T03:44:29.653Z,15.70
2017-06-29T03:46:57.932Z,15.80
2017-06-29T03:49:26.192Z,15.70
2017-06-29T03:51:53.709Z,15.60
2017-06-29T03:54:21.200Z,15.70
2017-06-29T03:56:48.724Z,15.80
2017-06-29T03:59:16.211Z,15.80
2017-06-29T04:01:43.727Z,15.70
2017-06-29T04:04:11.225Z,15.70
2017-06-29T04:06:38.760Z,15.70
2017-06-29T04:09:06.261Z,15.80
2017-06-29T04:11:33.776Z,15.80
2017-06-29T04:14:01.268Z,15.80
2017-06-29T04:16:28.777Z,15.80
2017-06-29T04:18:56.277Z,15.90
2017-06-29T04:21:23.789Z,15.80
2017-06-29T04:23:51.288Z,15.80
2017-06-29T04:26:18.784Z,15.90
2017-06-29T04:28:47.064Z,16.00
2017-06-29T04:31:14.569Z,15.90
2017-06-29T04:33:42.088Z,15.90
2017-06-29T04:36:09.580Z,15.90
2017-06-29T04:38:37.103Z,16.00
2017-06-29T04:41:04.623Z,15.90
2017-06-29T04:43:32.140Z,15.90
2017-06-29T04:45:59.641Z,15.90
2017-06-29T04:48:27.167Z,16.00
2017-06-29T04:50:54.671Z,15.90
2017-06-29T04:53:22.955Z,15.90
2017-06-29T04:55:50.489Z,15.80
2017-06-29T04:58:18.020Z,15.90
2017-06-29T05:00:46.356Z,16.00
2017-06-29T05:03:13.879Z,16.00
2017-06-29T05:05:41.378Z,16.10
2017-06-29T05:08:08.906Z,16.10
2017-06-29T05:10:36.408Z,16.00
2017-06-29T05:13:03.923Z,16.10
2017-06-29T05:15:31.423Z,16.20
2017-06-29T05:17:58.935Z,16.20
2017-06-29T05:20:27.198Z,16.20
2017-06-29T05:22:54.717Z,16.10
2017-06-29T05:25:22.219Z,16.20
2017-06-29T05:27:49.784Z,16.10
2017-06-29T05:30:18.084Z,16.10
2017-06-29T05:32:45.626Z,16.00
2017-06-29T05:35:13.896Z,16.20
2017-06-29T05:37:41.412Z,16.10
2017-06-29T05:40:08.916Z,16.20
2017-06-29T05:42:36.428Z,16.20
2017-06-29T05:45:03.929Z,16.20
2017-06-29T05:47:31.445Z,16.30
2017-06-29T05:49:58.960Z,16.20
2017-06-29T05:52:27.243Z,16.30
2017-06-29T05:54:54.849Z,16.20
2017-06-29T05:57:22.438Z,16.40
2017-06-29T05:59:49.961Z,16.50
2017-06-29T06:02:17.484Z,16.50
2017-06-29T06:04:44.981Z,16.50
2017-06-29T06:07:12.557Z,16.50
2017-06-29T06:09:40.128Z,16.50
2017-06-29T06:12:07.652Z,16.60
2017-06-29T06:14:35.184Z,16.60
2017-06-29T06:17:02.768Z,16.60
2017-06-29T06:19:30.312Z,16.60
2017-06-29T06:21:57.881Z,16.70
2017-06-29T06:24:25.461Z,16.60
2017-06-29T06:26:53.233Z,16.70
2017-06-29T06:29:21.774Z,16.60
2017-06-29T06:31:49.370Z,16.50
2017-06-29T06:34:16.916Z,16.60
2017-06-29T06:36:44.532Z,16.60
2017-06-29T06:39:12.097Z,16.70
2017-06-29T06:41:39.683Z,16.80
2017-06-29T06:44:07.190Z,16.90
2017-06-29T06:46:34.749Z,16.90
2017-06-29T06:49:03.096Z,17.00
2017-06-29T06:51:30.777Z,16.90
2017-06-29T06:53:58.336Z,17.00
2017-06-29T06:56:25.940Z,17.10
2017-06-29T06:58:53.472Z,17.00
2017-06-29T07:01:21.837Z,16.80
2017-06-29T07:03:49.376Z,16.80
2017-06-29T07:06:16.892Z,16.80
2017-06-29T07:08:44.392Z,16.90
2017-06-29T07:11:11.914Z,17.00
2017-06-29T07:13:39.409Z,16.80
2017-06-29T07:16:07.157Z,16.80
2017-06-29T07:18:34.688Z,16.80
2017-06-29T07:21:02.199Z,16.80
2017-06-29T07:23:29.692Z,16.90
2017-06-29T07:25:57.976Z,16.80
2017-06-29T07:28:25.908Z,16.70
2017-06-29T07:30:53.451Z,16.90
2017-06-29T07:33:21.014Z,17.00
2017-06-29T07:35:48.589Z,16.90
2017-06-29T07:38:16.980Z,17.00
2017-06-29T07:40:45.362Z,17.00
2017-06-29T07:43:12.968Z,17.00
2017-06-29T07:45:40.537Z,17.10
2017-06-29T07:48:08.085Z,17.10
2017-06-29T07:50:35.688Z,17.10
2017-06-29T07:53:04.015Z,16.90
2017-06-29T07:55:31.631Z,16.90
2017-06-29T07:57:59.948Z,17.00
2017-06-29T08:00:27.494Z,17.00
2017-06-29T08:02:55.010Z,17.10
2017-06-29T08:05:22.534Z,17.30
2017-06-29T08:07:50.277Z,17.30
2017-06-29T08:10:17.864Z,17.50
2017-06-29T08:12:45.392Z,17.60
2017-06-29T08:15:12.985Z,17.60
2017-06-29T08:17:40.552Z,17.70
2017-06-29T08:20:08.141Z,17.80
2017-06-29T08:22:35.736Z,17.80
2017-06-29T08:25:03.353Z,18.00
2017-06-29T08:27:30.922Z,18.20
2017-06-29T08:29:58.540Z,18.40
2017-06-29T08:32:26.099Z,18.60
2017-06-29T08:34:53.640Z,18.80
2017-06-29T08:37:21.228Z,19.00
2017-06-29T08:39:48.816Z,19.30
2017-06-29T08:42:16.392Z,19.30
2017-06-29T08:44:43.998Z,19.30
2017-06-29T08:47:11.543Z,19.30
2017-06-29T08:49:39.128Z,19.50
2017-06-29T08:52:06.705Z,19.60
2017-06-29T08:54:34.312Z,19.80
2017-06-29T08:57:01.848Z,20.00
2017-06-29T08:59:30.188Z,20.20
2017-06-29T09:01:58.065Z,20.10
2017-06-29T09:04:25.663Z,20.20
2017-06-29T09:06:53.176Z,20.10
2017-06-29T09:09:20.936Z,19.90
2017-06-29T09:11:48.493Z,20.00
2017-06-29T09:14:16.049Z,20.00
2017-06-29T09:16:43.676Z,19.90
2017-06-29T09:19:11.237Z,20.10
2017-06-29T09:21:38.838Z,20.10
2017-06-29T09:24:06.419Z,20.10
2017-06-29T09:26:34.940Z,20.30
2017-06-29T09:29:02.496Z,20.20
2017-06-29T09:31:30.109Z,20.20
2017-06-29T09:33:57.681Z,20.10
2017-06-29T09:36:25.273Z,20.20
2017-06-29T09:38:52.817Z,20.10
2017-06-29T09:41:20.436Z,20.00
2017-06-29T09:43:47.961Z,20.00
2017-06-29T09:46:15.557Z,20.20
2017-06-29T09:48:43.948Z,20.30
2017-06-29T09:51:11.585Z,20.20
2017-06-29T09:53:39.158Z,20.20
2017-06-29T09:56:08.668Z,20.40
2017-06-29T09:58:37.001Z,20.50
2017-06-29T10:01:04.609Z,20.40
2017-06-29T10:03:32.198Z,20.50
2017-06-29T10:05:59.897Z,20.70
2017-06-29T10:08:27.396Z,20.70
2017-06-29T10:10:54.973Z,20.80
2017-06-29T10:13:22.483Z,20.90
2017-06-29T10:15:50.224Z,20.80
2017-06-29T10:18:17.775Z,20.90
2017-06-29T10:20:45.366Z,21.00
2017-06-29T10:23:12.928Z,21.10
2017-06-29T10:25:40.537Z,21.20
2017-06-29T10:28:08.108Z,21.40
2017-06-29T10:30:35.685Z,21.30
2017-06-29T10:33:03.252Z,21.40
2017-06-29T10:35:30.864Z,21.30
2017-06-29T10:37:59.171Z,21.00
2017-06-29T10:40:26.946Z,20.90
2017-06-29T10:42:54.521Z,20.80
2017-06-29T10:45:22.101Z,21.00
2017-06-29T10:47:50.461Z,21.20
2017-06-29T10:50:18.858Z,21.20
2017-06-29T10:52:47.217Z,21.20
2017-06-29T10:55:14.836Z,21.20
2017-06-29T10:57:42.426Z,21.20
2017-06-29T11:00:10.049Z,21.20
2017-06-29T11:02:37.592Z,21.20
2017-06-29T11:05:05.198Z,21.20
2017-06-29T11:07:32.797Z,21.40
2017-06-29T11:10:00.584Z,21.50
2017-06-29T11:12:28.177Z,21.40
2017-06-29T11:14:55.776Z,21.60
2017-06-29T11:17:24.178Z,22.00
2017-06-29T11:19:51.824Z,21.90
2017-06-29T11:22:20.133Z,22.30
2017-06-29T11:24:47.721Z,22.20
2017-06-29T11:27:15.305Z,22.30
2017-06-29T11:29:42.892Z,22.30
2017-06-29T11:32:11.213Z,22.10
2017-06-29T11:34:39.601Z,21.90
2017-06-29T11:37:07.161Z,22.20
2017-06-29T11:39:34.775Z,22.20
2017-06-29T11:42:02.367Z,22.00
2017-06-29T11:44:29.953Z,22.00
2017-06-29T11:46:57.509Z,22.10
2017-06-29T11:49:25.093Z,22.00
2017-06-29T11:51:53.460Z,22.20
2017-06-29T11:54:20.999Z,22.10
2017-06-29T11:56:48.488Z,22.10
2017-06-29T11:59:16.004Z,22.20
2017-06-29T12:01:43.491Z,22.00
2017-06-29T12:04:11.001Z,21.70
2017-06-29T12:06:38.487Z,21.60
2017-06-29T12:09:06.000Z,21.50
2017-06-29T12:11:34.256Z,21.40
2017-06-29T12:14:01.768Z,21.30
2017-06-29T12:16:29.255Z,21.40
2017-06-29T12:18:56.784Z,21.70
2017-06-29T12:21:24.282Z,21.60
2017-06-29T12:23:51.781Z,21.50
2017-06-29T12:26:19.272Z,21.50
2017-06-29T12:28:46.783Z,21.50
2017-06-29T12:31:15.043Z,21.60
2017-06-29T12:33:42.553Z,21.40
2017-06-29T12:36:10.043Z,21.50
2017-06-29T12:38:37.558Z,21.50
2017-06-29T12:41:05.052Z,21.30
2017-06-29T12:43:32.571Z,19.70
2017-06-29T12:46:00.091Z,18.70
2017-06-29T12:48:27.599Z,18.10
2017-06-29T12:50:55.096Z,17.70
2017-06-29T12:53:22.625Z,17.80
2017-06-29T12:55:50.131Z,18.10
2017-06-29T12:58:17.707Z,18.50
2017-06-29T13:00:45.963Z,19.00
2017-06-29T13:03:13.473Z,18.90
2017-06-29T13:05:40.983Z,19.20
2017-06-29T13:08:08.493Z,19.50
2017-06-29T13:10:35.984Z,19.70
2017-06-29T13:13:03.719Z,19.60
2017-06-29T13:15:31.217Z,19.60
2017-06-29T13:17:58.732Z,19.70
2017-06-29T13:20:26.227Z,19.60
2017-06-29T13:22:53.766Z,19.60
2017-06-29T13:25:21.268Z,19.70
2017-06-29T13:27:48.784Z,19.90
2017-06-29T13:30:16.287Z,20.10
2017-06-29T13:32:43.793Z,20.20
2017-06-29T13:35:11.288Z,20.40
2017-06-29T13:37:38.799Z,20.50
2017-06-29T13:40:06.515Z,20.70
2017-06-29T13:42:34.004Z,20.80
2017-06-29T13:45:02.280Z,20.50
2017-06-29T13:47:29.771Z,20.40
2017-06-29T13:49:57.274Z,20.30
2017-06-29T13:52:24.769Z,20.20
2017-06-29T13:54:52.280Z,20.10
2017-06-29T13:57:19.779Z,20.20
2017-06-29T13:59:48.053Z,20.40
2017-06-29T14:02:16.309Z,20.40
2017-06-29T14:04:43.836Z,20.40
2017-06-29T14:07:11.557Z,20.50
2017-06-29T14:09:40.181Z,20.80
2017-06-29T14:12:07.696Z,20.70
2017-06-29T14:14:35.208Z,21.00
2017-06-29T14:17:02.695Z,20.90
2017-06-29T14:19:30.214Z,20.70
2017-06-29T14:21:57.720Z,20.70
2017-06-29T14:24:26.141Z,20.60
2017-06-29T14:26:53.628Z,20.60
2017-06-29T14:29:21.147Z,20.80
2017-06-29T14:31:49.399Z,21.20
2017-06-29T14:34:16.916Z,21.10
2017-06-29T14:36:44.403Z,21.20
2017-06-29T14:39:11.903Z,21.30
2017-06-29T14:41:40.188Z,21.30
2017-06-29T14:44:07.696Z,21.20
2017-06-29T14:46:35.197Z,21.20
2017-06-29T14:49:03.475Z,21.30
2017-06-29T14:51:31.732Z,20.90
2017-06-29T14:53:59.245Z,20.80
2017-06-29T14:56:26.737Z,20.80
2017-06-29T14:58:54.252Z,20.60
2017-06-29T15:01:21.748Z,20.40
2017-06-29T15:03:49.261Z,20.10
2017-06-29T15:06:16.757Z,20.00
2017-06-29T15:08:44.267Z,20.10
2017-06-29T15:11:11.762Z,20.50
2017-06-29T15:13:39.271Z,20.80
2017-06-29T15:16:07.544Z,21.40
2017-06-29T15:18:35.051Z,21.30
2017-06-29T15:21:02.551Z,21.50
2017-06-29T15:23:30.073Z,21.70
2017-06-29T15:25:57.569Z,21.60
2017-06-29T15:28:25.109Z,21.40
2017-06-29T15:30:52.601Z,21.20
2017-06-29T15:33:22.568Z,20.90
2017-06-29T15:35:50.064Z,20.80
2017-06-29T15:38:17.572Z,20.80
2017-06-29T15:40:45.312Z,20.60
2017-06-29T15:43:12.841Z,20.50
2017-06-29T15:45:40.892Z,20.30
2017-06-29T15:48:08.402Z,20.30
2017-06-29T15:50:36.033Z,20.50
2017-06-29T15:53:03.576Z,20.50
2017-06-29T15:55:31.064Z,20.30
2017-06-29T15:57:58.573Z,20.20
2017-06-29T16:00:26.073Z,20.30
2017-06-29T16:02:53.576Z,20.30
2017-06-29T16:05:21.063Z,20.40
2017-06-29T16:07:48.577Z,20.20
2017-06-29T16:10:16.836Z,19.90
2017-06-29T16:12:44.568Z,19.80
2017-06-29T16:15:12.061Z,19.90
2017-06-29T16:17:39.575Z,20.00
2017-06-29T16:20:07.071Z,20.10
2017-06-29T16:22:34.584Z,20.00
2017-06-29T16:25:02.064Z,20.10
2017-06-29T16:27:29.564Z,20.00
2017-06-29T16:29:57.044Z,19.90
2017-06-29T16:32:25.316Z,19.80
2017-06-29T16:34:53.584Z,19.90
2017-06-29T16:37:21.860Z,20.00
2017-06-29T16:39:50.121Z,20.10
2017-06-29T16:42:17.623Z,20.00
2017-06-29T16:44:45.120Z,20.00
2017-06-29T16:47:12.741Z,20.00
2017-06-29T16:49:40.262Z,20.00
2017-06-29T16:52:07.776Z,20.00
2017-06-29T16:54:35.268Z,20.20
2017-06-29T16:57:02.775Z,20.20
2017-06-29T16:59:30.268Z,20.10
2017-06-29T17:01:57.781Z,19.90
2017-06-29T17:04:26.036Z,19.70
2017-06-29T17:06:53.544Z,19.60
2017-06-29T17:09:21.044Z,19.70
2017-06-29T17:11:48.559Z,19.80
2017-06-29T17:14:16.055Z,19.80
2017-06-29T17:16:43.564Z,19.70
2017-06-29T17:19:11.061Z,19.80
2017-06-29T17:21:38.571Z,19.70
2017-06-29T17:24:06.827Z,19.70
2017-06-29T17:26:34.336Z,19.60
2017-06-29T17:29:01.828Z,19.90
2017-06-29T17:31:29.348Z,20.20
2017-06-29T17:33:56.831Z,20.30
2017-06-29T17:36:24.343Z,20.30
2017-06-29T17:38:51.840Z,20.30
2017-06-29T17:41:19.348Z,20.20
2017-06-29T17:43:46.835Z,20.10
2017-06-29T17:46:14.346Z,20.00
2017-06-29T17:48:41.833Z,19.90
2017-06-29T17:51:10.141Z,19.40
2017-06-29T17:53:37.636Z,19.30
2017-06-29T17:56:05.144Z,19.10
2017-06-29T17:58:32.643Z,18.80
2017-06-29T18:01:00.158Z,18.50
2017-06-29T18:03:27.659Z,18.30
2017-06-29T18:05:55.167Z,18.10
2017-06-29T18:08:23.662Z,17.80
2017-06-29T18:10:51.176Z,17.70
2017-06-29T18:13:18.668Z,17.70
2017-06-29T18:15:46.958Z,17.70
2017-06-29T18:18:14.451Z,17.60
2017-06-29T18:20:41.963Z,17.70
2017-06-29T18:23:10.218Z,17.80
2017-06-29T18:25:37.727Z,17.70
2017-06-29T18:28:05.228Z,17.80
2017-06-29T18:30:32.727Z,17.80
2017-06-29T18:33:00.228Z,17.90
2017-06-29T18:35:27.733Z,17.90
2017-06-29T18:37:56.020Z,17.90
2017-06-29T18:40:23.594Z,17.80
2017-06-29T18:42:51.131Z,17.80
2017-06-29T18:45:19.405Z,18.00
2017-06-29T18:47:47.697Z,17.90
2017-06-29T18:50:16.175Z,18.00
2017-06-29T18:52:43.700Z,17.80
2017-06-29T18:55:11.197Z,17.90
2017-06-29T18:57:39.477Z,17.90
2017-06-29T19:00:07.744Z,17.80
2017-06-29T19:02:36.015Z,17.70
2017-06-29T19:05:04.275Z,17.60
2017-06-29T19:07:31.788Z,17.50
2017-06-29T19:09:59.287Z,17.60
2017-06-29T19:12:26.799Z,17.50
2017-06-29T19:14:54.567Z,17.50
2017-06-29T19:17:22.166Z,17.40
2017-06-29T19:19:49.670Z,17.40
2017-06-29T19:22:17.987Z,17.40
2017-06-29T19:24:45.629Z,17.30
2017-06-29T19:27:13.158Z,17.40
2017-06-29T19:29:41.498Z,17.30
2017-06-29T19:32:09.243Z,17.20
2017-06-29T19:34:36.772Z,17.20
2017-06-29T19:37:05.063Z,17.10
2017-06-29T19:39:32.552Z,17.00
2017-06-29T19:42:00.059Z,17.00
2017-06-29T19:44:27.556Z,17.00
2017-06-29T19:46:55.069Z,16.90
2017-06-29T19:49:22.567Z,16.90
2017-06-29T19:51:50.079Z,16.90
2017-06-29T19:54:17.576Z,16.80
2017-06-29T19:56:45.087Z,16.80
2017-06-29T19:59:12.589Z,16.80
2017-06-29T20:01:40.866Z,16.70
2017-06-29T20:04:09.124Z,16.60
2017-06-29T20:06:36.639Z,16.50
2017-06-29T20:09:04.173Z,16.60
2017-06-29T20:11:31.684Z,16.60
2017-06-29T20:13:59.166Z,16.60
2017-06-29T20:16:27.445Z,16.70
2017-06-29T20:18:55.705Z,16.60
2017-06-29T20:21:23.216Z,16.50
2017-06-29T20:23:50.705Z,16.60
2017-06-29T20:26:18.220Z,16.60
2017-06-29T20:28:45.729Z,16.50
2017-06-29T20:31:13.244Z,16.50
2017-06-29T20:33:41.026Z,16.50
2017-06-29T20:36:08.587Z,16.50
2017-06-29T20:38:36.091Z,16.40
2017-06-29T20:41:03.610Z,16.40
2017-06-29T20:43:31.100Z,16.40
2017-06-29T20:45:58.619Z,16.30
2017-06-29T20:48:26.127Z,16.20
2017-06-29T20:50:53.663Z,16.30
2017-06-29T20:53:21.152Z,16.20
2017-06-29T20:55:50.451Z,16.20
2017-06-29T20:58:17.943Z,16.10
2017-06-29T21:00:45.452Z,16.20
2017-06-29T21:03:12.940Z,16.20
2017-06-29T21:05:41.224Z,16.10
2017-06-29T21:08:08.721Z,16.00
2017-06-29T21:10:36.229Z,16.10
2017-06-29T21:13:03.719Z,16.20
2017-06-29T21:15:31.255Z,16.10
2017-06-29T21:17:59.527Z,15.80
2017-06-29T21:20:27.807Z,15.80
2017-06-29T21:22:56.063Z,15.80
2017-06-29T21:25:23.571Z,15.70
2017-06-29T21:27:51.055Z,15.90
2017-06-29T21:30:18.567Z,15.90
2017-06-29T21:32:46.844Z,15.80
2017-06-29T21:35:14.357Z,15.70
2017-06-29T21:37:41.847Z,15.70
2017-06-29T21:40:09.371Z,15.70
2017-06-29T21:42:36.873Z,15.60
2017-06-29T21:45:05.144Z,15.50
2017-06-29T21:47:32.632Z,15.40
2017-06-29T21:50:00.156Z,15.40
2017-06-29T21:52:27.657Z,15.40
2017-06-29T21:54:55.167Z,15.40
2017-06-29T21:57:22.668Z,15.40
2017-06-29T21:59:50.188Z,15.50
2017-06-29T22:02:17.676Z,15.50
2017-06-29T22:04:45.951Z,15.40
2017-06-29T22:07:14.216Z,15.30
2017-06-29T22:09:41.719Z,15.20
2017-06-29T22:12:09.223Z,15.30
2017-06-29T22:14:36.741Z,15.20
2017-06-29T22:17:04.248Z,15.10
2017-06-29T22:19:31.776Z,15.10
2017-06-29T22:21:59.510Z,15.00
2017-06-29T22:24:27.016Z,14.80
2017-06-29T22:26:54.505Z,14.80
2017-06-29T22:29:22.791Z,14.70
2017-06-29T22:31:50.286Z,14.70
2017-06-29T22:34:17.808Z,14.60
2017-06-29T22:36:46.068Z,14.70
2017-06-29T22:39:13.585Z,14.60
2017-06-29T22:41:41.078Z,14.70
2017-06-29T22:44:08.586Z,14.70
2017-06-29T22:46:36.084Z,14.60
2017-06-29T22:49:03.603Z,14.60
2017-06-29T22:51:31.136Z,14.50
2017-06-29T22:53:59.411Z,14.40
2017-06-29T22:56:27.673Z,14.50
2017-06-29T22:58:55.443Z,14.40
2017-06-29T23:01:22.927Z,14.50
2017-06-29T23:03:51.333Z,14.50
2017-06-29T23:06:18.838Z,14.40
2017-06-29T23:08:46.337Z,14.40
2017-06-29T23:11:13.843Z,14.40
2017-06-29T23:13:41.346Z,14.40
2017-06-29T23:16:09.111Z,14.40
2017-06-29T23:18:36.619Z,14.40
2017-06-29T23:21:04.112Z,14.50
2017-06-29T23:23:31.638Z,14.50
2017-06-29T23:25:59.123Z,14.40
2017-06-29T23:28:26.624Z,14.40
2017-06-29T23:30:54.116Z,14.20
2017-06-29T23:33:21.941Z,14.30
2017-06-29T23:35:49.448Z,14.30
2017-06-29T23:38:16.939Z,14.30
2017-06-29T23:40:45.221Z,14.20
2017-06-29T23:43:12.703Z,14.10
2017-06-29T23:45:40.203Z,14.20
2017-06-29T23:48:07.695Z,14.20
2017-06-29T23:50:36.276Z,14.20
2017-06-29T23:53:04.536Z,14.30
2017-06-29T23:55:32.027Z,14.20
2017-06-29T23:57:59.537Z,14.30
